createdAt,value
2023-02-14T00:00:49.407Z,3.77
2023-02-14T00:03:16.128Z,3.79
2023-02-14T00:05:42.767Z,3.76
2023-02-14T00:08:09.365Z,3.73
2023-02-14T00:10:35.928Z,3.71
2023-02-14T00:13:02.734Z,3.67
2023-02-14T00:15:29.512Z,3.63
2023-02-14T00:17:59.652Z,3.59
2023-02-14T00:20:27.505Z,3.58
2023-02-14T00:22:54.389Z,3.54
2023-02-14T00:25:21.254Z,3.51
2023-02-14T00:27:47.832Z,3.52
2023-02-14T00:30:14.432Z,3.50
2023-02-14T00:32:42.418Z,3.45
2023-02-14T00:35:09.766Z,3.42
2023-02-14T00:37:36.850Z,3.40
2023-02-14T00:40:04.217Z,3.39
2023-02-14T00:42:30.745Z,3.35
2023-02-14T00:44:57.185Z,3.31
2023-02-14T00:47:23.767Z,3.30
2023-02-14T00:49:50.270Z,3.28
2023-02-14T00:52:16.754Z,3.22
2023-02-14T00:54:43.675Z,3.16
2023-02-14T00:57:10.559Z,3.12
2023-02-14T00:59:38.086Z,3.08
2023-02-14T01:02:04.723Z,3.04
2023-02-14T01:04:31.313Z,3.00
2023-02-14T01:06:58.893Z,2.98
2023-02-14T01:09:25.379Z,2.99
2023-02-14T01:11:51.872Z,2.98
2023-02-14T01:14:18.343Z,2.97
2023-02-14T01:16:45.262Z,2.96
2023-02-14T01:19:11.822Z,2.95
2023-02-14T01:21:38.491Z,2.94
2023-02-14T01:24:08.225Z,2.91
2023-02-14T01:26:35.704Z,2.86
2023-02-14T01:29:03.590Z,2.84
2023-02-14T01:31:33.265Z,2.83
2023-02-14T01:34:00.518Z,2.80
2023-02-14T01:36:31.199Z,2.77
2023-02-14T01:39:00.740Z,2.72
2023-02-14T01:41:29.592Z,2.66
2023-02-14T01:44:00.600Z,2.64
2023-02-14T01:46:30.125Z,2.62
2023-02-14T01:49:05.094Z,2.60
2023-02-14T01:51:33.380Z,2.60
2023-02-14T01:54:00.862Z,2.56
2023-02-14T01:56:36.182Z,2.55
2023-02-14T01:59:06.111Z,2.57
2023-02-14T02:01:32.852Z,2.53
2023-02-14T02:04:05.857Z,2.52
2023-02-14T02:06:37.817Z,2.55
2023-02-14T02:09:16.219Z,2.59
2023-02-14T02:11:43.267Z,2.56
2023-02-14T02:14:14.988Z,2.52
2023-02-14T02:17:04.684Z,2.47
2023-02-14T02:19:43.188Z,2.46
2023-02-14T02:22:49.203Z,2.39
2023-02-14T02:25:35.437Z,2.37
2023-02-14T02:28:29.545Z,2.35
2023-02-14T02:31:21.368Z,2.32
2023-02-14T02:34:03.927Z,2.32
2023-02-14T02:36:50.227Z,2.29
2023-02-14T02:39:23.605Z,2.33
2023-02-14T02:41:55.302Z,2.33
2023-02-14T02:44:30.585Z,2.31
2023-02-14T02:47:16.708Z,2.28
2023-02-14T02:50:14.853Z,2.25
2023-02-14T02:53:03.437Z,2.25
2023-02-14T02:56:16.921Z,2.20
2023-02-14T02:58:50.597Z,2.19
2023-02-14T03:01:23.144Z,2.19
2023-02-14T03:04:15.321Z,2.17
2023-02-14T03:06:41.812Z,2.19
2023-02-14T03:09:20.406Z,2.15
2023-02-14T03:11:59.256Z,2.13
2023-02-14T03:14:35.557Z,2.13
2023-02-14T03:17:07.439Z,2.14
2023-02-14T03:20:01.486Z,2.14
2023-02-14T03:22:43.677Z,2.15
2023-02-14T03:25:16.632Z,2.15
2023-02-14T03:27:53.046Z,2.16
2023-02-14T03:30:40.167Z,2.15
2023-02-14T03:33:17.383Z,2.16
2023-02-14T03:35:56.909Z,2.15
2023-02-14T03:38:33.800Z,2.13
2023-02-14T03:41:05.555Z,2.13
2023-02-14T03:43:37.495Z,2.10
2023-02-14T03:46:08.998Z,2.12
2023-02-14T03:48:37.925Z,2.13
2023-02-14T03:51:06.877Z,2.15
2023-02-14T03:53:36.534Z,2.14
2023-02-14T03:56:22.416Z,2.13
2023-02-14T03:58:53.962Z,2.11
2023-02-14T04:01:29.101Z,2.08
2023-02-14T04:03:57.780Z,2.07
2023-02-14T04:06:25.279Z,2.05
2023-02-14T04:08:52.030Z,2.03
2023-02-14T04:11:19.780Z,2.02
2023-02-14T04:13:46.289Z,2.02
2023-02-14T04:16:12.987Z,2.02
2023-02-14T04:18:58.034Z,1.97
2023-02-14T04:21:24.598Z,1.95
2023-02-14T04:23:51.089Z,1.97
2023-02-14T04:26:17.621Z,1.98
2023-02-14T04:28:44.099Z,2.00
2023-02-14T04:31:11.472Z,1.99
2023-02-14T04:33:40.330Z,1.97
2023-02-14T04:36:08.161Z,1.92
2023-02-14T04:38:35.088Z,1.92
2023-02-14T04:41:03.112Z,1.89
2023-02-14T04:43:29.805Z,1.86
2023-02-14T04:45:57.269Z,1.85
2023-02-14T04:48:23.941Z,1.85
2023-02-14T04:50:56.372Z,1.86
2023-02-14T04:53:22.843Z,1.85
2023-02-14T04:55:50.108Z,1.83
2023-02-14T04:58:17.253Z,1.81
2023-02-14T05:00:43.794Z,1.80
2023-02-14T05:03:11.299Z,1.79
2023-02-14T05:05:37.809Z,1.78
2023-02-14T05:08:04.350Z,1.77
2023-02-14T05:10:32.028Z,1.75
2023-02-14T05:12:58.529Z,1.73
2023-02-14T05:15:25.014Z,1.71
2023-02-14T05:17:51.470Z,1.72
2023-02-14T05:20:18.106Z,1.73
2023-02-14T05:22:44.597Z,1.74
2023-02-14T05:25:11.239Z,1.74
2023-02-14T05:27:37.694Z,1.74
2023-02-14T05:30:04.439Z,1.77
2023-02-14T05:32:30.941Z,1.76
2023-02-14T05:35:00.775Z,1.77
2023-02-14T05:37:27.605Z,1.77
2023-02-14T05:39:55.076Z,1.78
2023-02-14T05:42:21.743Z,1.76
2023-02-14T05:44:48.918Z,1.75
2023-02-14T05:47:16.524Z,1.73
2023-02-14T05:49:43.450Z,1.69
2023-02-14T05:52:10.088Z,1.71
2023-02-14T05:54:36.946Z,1.73
2023-02-14T05:57:03.464Z,1.73
2023-02-14T05:59:29.970Z,1.73
2023-02-14T06:01:57.504Z,1.74
2023-02-14T06:04:24.229Z,1.72
2023-02-14T06:06:50.905Z,1.69
2023-02-14T06:09:18.462Z,1.66
2023-02-14T06:11:45.114Z,1.66
2023-02-14T06:14:11.701Z,1.65
2023-02-14T06:16:38.397Z,1.66
2023-02-14T06:19:04.951Z,1.65
2023-02-14T06:21:31.741Z,1.62
2023-02-14T06:23:58.286Z,1.63
2023-02-14T06:26:27.883Z,1.64
2023-02-14T06:28:55.586Z,1.61
2023-02-14T06:31:22.469Z,1.61
2023-02-14T06:33:49.189Z,1.60
2023-02-14T06:36:16.152Z,1.60
2023-02-14T06:38:43.313Z,1.59
2023-02-14T06:41:12.145Z,1.58
2023-02-14T06:43:39.194Z,1.55
2023-02-14T06:46:06.325Z,1.56
2023-02-14T06:48:32.899Z,1.57
2023-02-14T06:51:00.851Z,1.56
2023-02-14T06:53:27.841Z,1.56
2023-02-14T06:55:54.519Z,1.57
2023-02-14T06:58:21.175Z,1.58
2023-02-14T07:00:48.295Z,1.60
2023-02-14T07:03:15.353Z,1.60
2023-02-14T07:05:42.013Z,1.59
2023-02-14T07:08:08.584Z,1.59
2023-02-14T07:10:36.318Z,1.57
2023-02-14T07:13:02.990Z,1.58
2023-02-14T07:15:29.757Z,1.57
2023-02-14T07:17:57.303Z,1.59
2023-02-14T07:20:23.796Z,1.62
2023-02-14T07:22:50.335Z,1.61
2023-02-14T07:25:16.860Z,1.62
2023-02-14T07:27:43.958Z,1.61
2023-02-14T07:30:11.939Z,1.62
2023-02-14T07:32:39.328Z,1.65
2023-02-14T07:35:07.999Z,1.69
2023-02-14T07:37:35.618Z,1.72
2023-02-14T07:40:08.732Z,1.74
2023-02-14T07:42:38.992Z,1.74
2023-02-14T07:45:20.803Z,1.77
2023-02-14T07:47:50.582Z,1.82
2023-02-14T07:50:17.715Z,1.85
2023-02-14T07:52:44.625Z,1.89
2023-02-14T07:55:11.377Z,1.90
2023-02-14T07:57:38.042Z,1.93
2023-02-14T08:00:07.650Z,1.95
2023-02-14T08:02:34.396Z,1.99
2023-02-14T08:05:00.945Z,2.02
2023-02-14T08:07:27.568Z,2.03
2023-02-14T08:09:54.605Z,2.06
2023-02-14T08:12:40.551Z,2.10
2023-02-14T08:15:26.103Z,2.13
2023-02-14T08:17:52.602Z,2.14
2023-02-14T08:20:19.188Z,2.18
2023-02-14T08:22:45.640Z,2.21
2023-02-14T08:25:12.107Z,2.23
2023-02-14T08:27:38.694Z,2.27
2023-02-14T08:30:05.865Z,2.27
2023-02-14T08:32:32.455Z,2.28
2023-02-14T08:34:59.039Z,2.32
2023-02-14T08:37:25.531Z,2.35
2023-02-14T08:39:52.061Z,2.39
2023-02-14T08:42:18.545Z,2.42
2023-02-14T08:44:45.062Z,2.46
2023-02-14T08:47:11.652Z,2.48
2023-02-14T08:49:38.248Z,2.51
2023-02-14T08:52:04.839Z,2.54
2023-02-14T08:54:31.349Z,2.54
2023-02-14T08:56:58.207Z,2.58
2023-02-14T08:59:24.655Z,2.63
2023-02-14T09:01:51.199Z,2.68
2023-02-14T09:04:17.765Z,2.74
2023-02-14T09:06:44.430Z,2.79
2023-02-14T09:09:11.122Z,2.86
2023-02-14T09:11:37.679Z,2.93
2023-02-14T09:14:04.328Z,3.00
2023-02-14T09:16:31.423Z,3.06
2023-02-14T09:18:58.010Z,3.12
2023-02-14T09:21:28.042Z,3.19
2023-02-14T09:23:55.770Z,3.28
2023-02-14T09:26:22.325Z,3.36
2023-02-14T09:28:49.079Z,3.45
2023-02-14T09:31:19.837Z,3.53
2023-02-14T09:34:07.615Z,3.61
2023-02-14T09:36:34.119Z,3.68
2023-02-14T09:39:00.707Z,3.71
2023-02-14T09:41:30.310Z,3.76
2023-02-14T09:44:08.836Z,3.86
2023-02-14T09:46:43.069Z,3.94
2023-02-14T09:49:16.985Z,4.05
2023-02-14T09:51:49.911Z,4.18
2023-02-14T09:54:23.724Z,4.28
2023-02-14T09:56:58.658Z,4.29
2023-02-14T09:59:43.460Z,4.33
2023-02-14T10:02:18.830Z,4.43
2023-02-14T10:05:13.319Z,4.53
2023-02-14T10:07:45.879Z,4.54
2023-02-14T10:10:13.326Z,4.65
2023-02-14T10:12:55.294Z,4.73
2023-02-14T10:15:32.327Z,4.83
2023-02-14T10:18:04.909Z,4.88
2023-02-14T10:20:37.592Z,4.94
2023-02-14T10:23:21.161Z,5.04
2023-02-14T10:25:55.144Z,5.12
2023-02-14T10:28:31.267Z,5.25
2023-02-14T10:31:19.417Z,5.30
2023-02-14T10:33:57.079Z,5.38
2023-02-14T10:36:40.274Z,5.45
2023-02-14T10:39:31.194Z,5.49
2023-02-14T10:42:03.615Z,5.59
2023-02-14T10:44:37.424Z,5.68
2023-02-14T10:47:45.184Z,5.79
2023-02-14T10:50:29.524Z,5.89
2023-02-14T10:53:03.827Z,5.97
2023-02-14T10:55:44.190Z,6.03
2023-02-14T10:58:16.170Z,6.09
2023-02-14T11:00:54.539Z,6.20
2023-02-14T11:03:21.533Z,6.28
2023-02-14T11:05:49.470Z,6.35
2023-02-14T11:08:37.740Z,6.41
2023-02-14T11:11:11.908Z,6.53
2023-02-14T11:13:39.527Z,6.58
2023-02-14T11:16:09.637Z,6.60
2023-02-14T11:18:39.246Z,6.68
2023-02-14T11:21:09.764Z,6.78
2023-02-14T11:23:39.573Z,6.85
2023-02-14T11:26:14.524Z,6.88
2023-02-14T11:28:56.523Z,6.92
2023-02-14T11:31:27.794Z,6.97
2023-02-14T11:33:55.725Z,7.01
2023-02-14T11:36:23.515Z,7.04
2023-02-14T11:39:07.374Z,7.08
2023-02-14T11:41:53.016Z,7.15
2023-02-14T11:44:24.697Z,7.22
2023-02-14T11:46:54.031Z,7.29
2023-02-14T11:49:33.846Z,7.33
2023-02-14T11:52:10.560Z,7.35
2023-02-14T11:54:40.986Z,7.41
2023-02-14T11:57:14.831Z,7.48
2023-02-14T11:59:45.249Z,7.53
2023-02-14T12:02:24.471Z,7.59
2023-02-14T12:04:59.098Z,7.66
2023-02-14T12:07:30.875Z,7.69
2023-02-14T12:10:17.406Z,7.74
2023-02-14T12:12:56.275Z,7.79
2023-02-14T12:15:25.865Z,7.84
2023-02-14T12:18:01.434Z,7.88
2023-02-14T12:20:40.722Z,7.93
2023-02-14T12:23:18.401Z,7.97
2023-02-14T12:25:57.284Z,8.01
2023-02-14T12:28:31.576Z,8.04
2023-02-14T12:30:58.945Z,8.05
2023-02-14T12:33:27.004Z,8.08
2023-02-14T12:36:12.585Z,8.14
2023-02-14T12:38:53.904Z,8.17
2023-02-14T12:41:26.965Z,8.19
2023-02-14T12:43:56.274Z,8.24
2023-02-14T12:46:45.625Z,8.28
2023-02-14T12:49:22.568Z,8.35
2023-02-14T12:52:01.566Z,8.39
2023-02-14T12:54:44.784Z,8.41
2023-02-14T12:57:19.930Z,8.44
2023-02-14T12:59:58.462Z,8.46
2023-02-14T13:02:44.456Z,8.48
2023-02-14T13:05:22.716Z,8.50
2023-02-14T13:07:55.898Z,8.51
2023-02-14T13:10:25.679Z,8.52
2023-02-14T13:13:07.849Z,8.56
2023-02-14T13:15:46.204Z,8.64
2023-02-14T13:18:25.556Z,8.66
2023-02-14T13:20:57.109Z,8.66
2023-02-14T13:23:27.413Z,8.69
2023-02-14T13:26:00.676Z,8.72
2023-02-14T13:28:30.811Z,8.79
2023-02-14T13:31:00.682Z,8.81
2023-02-14T13:33:35.099Z,8.82
2023-02-14T13:36:07.084Z,8.82
2023-02-14T13:38:41.988Z,8.82
2023-02-14T13:41:10.788Z,8.83
2023-02-14T13:43:47.690Z,8.82
2023-02-14T13:46:16.791Z,8.85
2023-02-14T13:48:55.112Z,8.87
2023-02-14T13:51:21.744Z,8.90
2023-02-14T13:53:49.219Z,8.92
2023-02-14T13:56:15.750Z,8.94
2023-02-14T13:58:51.094Z,9.01
2023-02-14T14:01:48.085Z,9.01
2023-02-14T14:04:28.025Z,9.02
2023-02-14T14:07:18.279Z,9.02
2023-02-14T14:09:45.384Z,9.02
2023-02-14T14:12:27.220Z,9.06
2023-02-14T14:15:14.919Z,9.08
2023-02-14T14:18:09.283Z,9.06
2023-02-14T14:20:43.489Z,9.08
2023-02-14T14:23:29.605Z,9.10
2023-02-14T14:25:56.306Z,9.10
2023-02-14T14:28:25.933Z,9.12
2023-02-14T14:30:52.606Z,9.16
2023-02-14T14:33:29.678Z,9.14
2023-02-14T14:36:00.356Z,9.17
2023-02-14T14:38:27.777Z,9.18
2023-02-14T14:40:55.123Z,9.19
2023-02-14T14:43:30.283Z,9.18
2023-02-14T14:45:59.908Z,9.14
2023-02-14T14:48:32.266Z,9.16
2023-02-14T14:50:59.799Z,9.14
2023-02-14T14:53:32.526Z,9.12
2023-02-14T14:55:59.613Z,9.11
2023-02-14T14:58:39.289Z,9.10
2023-02-14T15:01:08.711Z,9.09
2023-02-14T15:03:35.345Z,9.07
2023-02-14T15:06:06.992Z,9.08
2023-02-14T15:08:34.460Z,9.08
2023-02-14T15:11:08.902Z,9.07
2023-02-14T15:13:51.307Z,9.08
2023-02-14T15:16:20.806Z,9.06
2023-02-14T15:18:49.001Z,9.04
2023-02-14T15:21:16.444Z,9.04
2023-02-14T15:23:45.068Z,9.03
2023-02-14T15:26:18.869Z,9.02
2023-02-14T15:28:55.092Z,9.02
2023-02-14T15:31:22.090Z,9.03
2023-02-14T15:33:48.975Z,9.02
2023-02-14T15:36:21.083Z,9.01
2023-02-14T15:38:47.995Z,9.00
2023-02-14T15:41:16.767Z,8.97
2023-02-14T15:43:43.488Z,8.94
2023-02-14T15:46:18.984Z,8.94
2023-02-14T15:48:46.721Z,8.92
2023-02-14T15:51:19.303Z,8.90
2023-02-14T15:53:52.760Z,8.87
2023-02-14T15:56:28.653Z,8.84
2023-02-14T15:58:59.366Z,8.80
2023-02-14T16:01:27.205Z,8.77
2023-02-14T16:03:58.445Z,8.72
2023-02-14T16:06:34.500Z,8.69
2023-02-14T16:09:02.859Z,8.65
2023-02-14T16:11:35.978Z,8.60
2023-02-14T16:14:28.008Z,8.54
2023-02-14T16:17:10.930Z,8.49
2023-02-14T16:19:45.922Z,8.44
2023-02-14T16:22:26.150Z,8.42
2023-02-14T16:24:52.633Z,8.39
2023-02-14T16:27:19.180Z,8.31
2023-02-14T16:29:45.691Z,8.26
2023-02-14T16:32:18.698Z,8.17
2023-02-14T16:34:47.430Z,8.14
2023-02-14T16:37:21.930Z,8.08
2023-02-14T16:39:49.972Z,8.02
2023-02-14T16:42:19.391Z,7.94
2023-02-14T16:44:47.057Z,7.88
2023-02-14T16:47:15.799Z,7.84
2023-02-14T16:49:42.355Z,7.76
2023-02-14T16:52:20.697Z,7.69
2023-02-14T16:54:48.348Z,7.63
2023-02-14T16:57:22.894Z,7.57
2023-02-14T16:59:50.587Z,7.52
2023-02-14T17:02:19.046Z,7.45
2023-02-14T17:04:45.814Z,7.40
2023-02-14T17:07:16.344Z,7.34
2023-02-14T17:09:48.498Z,7.32
2023-02-14T17:12:21.026Z,7.25
2023-02-14T17:14:52.521Z,7.20
2023-02-14T17:17:19.818Z,7.16
2023-02-14T17:19:46.414Z,7.12
2023-02-14T17:22:14.733Z,7.07
2023-02-14T17:24:41.613Z,7.05
2023-02-14T17:27:08.601Z,7.05
2023-02-14T17:29:35.097Z,6.97
2023-02-14T17:32:01.812Z,6.92
2023-02-14T17:34:32.667Z,6.88
2023-02-14T17:36:59.701Z,6.85
2023-02-14T17:39:26.560Z,6.82
2023-02-14T17:41:53.240Z,6.78
2023-02-14T17:44:19.837Z,6.78
2023-02-14T17:46:46.582Z,6.72
2023-02-14T17:49:13.172Z,6.68
2023-02-14T17:51:39.797Z,6.62
2023-02-14T17:54:08.133Z,6.59
2023-02-14T17:56:34.673Z,6.58
2023-02-14T17:59:01.247Z,6.52
2023-02-14T18:01:31.489Z,6.46
2023-02-14T18:03:59.355Z,6.39
2023-02-14T18:06:27.767Z,6.35
2023-02-14T18:08:57.052Z,6.31
2023-02-14T18:11:27.204Z,6.24
2023-02-14T18:13:55.356Z,6.18
2023-02-14T18:16:22.606Z,6.16
2023-02-14T18:18:50.717Z,6.12
2023-02-14T18:21:25.352Z,6.08
2023-02-14T18:23:54.061Z,6.06
2023-02-14T18:26:20.568Z,6.05
2023-02-14T18:28:47.188Z,5.99
2023-02-14T18:31:16.701Z,5.91
2023-02-14T18:33:44.031Z,5.88
2023-02-14T18:36:13.413Z,5.82
2023-02-14T18:38:41.735Z,5.77
2023-02-14T18:41:11.711Z,5.75
2023-02-14T18:43:38.810Z,5.73
2023-02-14T18:46:07.657Z,5.66
2023-02-14T18:48:35.088Z,5.65
2023-02-14T18:51:06.806Z,5.65
2023-02-14T18:53:33.314Z,5.62
2023-02-14T18:56:05.123Z,5.55
2023-02-14T18:58:31.886Z,5.52
2023-02-14T19:00:58.540Z,5.46
2023-02-14T19:03:25.190Z,5.44
2023-02-14T19:05:53.125Z,5.41
2023-02-14T19:08:19.831Z,5.32
2023-02-14T19:10:46.600Z,5.24
2023-02-14T19:13:13.104Z,5.20
2023-02-14T19:15:39.848Z,5.21
2023-02-14T19:18:06.376Z,5.19
2023-02-14T19:20:32.934Z,5.14
2023-02-14T19:22:59.604Z,5.11
2023-02-14T19:25:27.683Z,5.04
2023-02-14T19:27:54.208Z,4.97
2023-02-14T19:30:20.908Z,4.93
2023-02-14T19:32:52.830Z,4.89
2023-02-14T19:35:19.462Z,4.88
2023-02-14T19:37:46.007Z,4.84
2023-02-14T19:40:12.884Z,4.78
2023-02-14T19:42:39.410Z,4.76
2023-02-14T19:45:06.215Z,4.75
2023-02-14T19:47:46.290Z,4.73
2023-02-14T19:50:13.992Z,4.72
2023-02-14T19:52:41.488Z,4.74
2023-02-14T19:55:08.526Z,4.79
2023-02-14T19:57:35.104Z,4.81
2023-02-14T20:00:01.692Z,4.71
2023-02-14T20:02:28.286Z,4.63
2023-02-14T20:04:58.808Z,4.65
2023-02-14T20:07:25.402Z,4.69
2023-02-14T20:09:51.902Z,4.69
2023-02-14T20:12:18.513Z,4.69
2023-02-14T20:14:51.348Z,4.67
2023-02-14T20:17:18.752Z,4.63
2023-02-14T20:19:45.428Z,4.56
2023-02-14T20:22:12.016Z,4.50
2023-02-14T20:24:39.595Z,4.44
2023-02-14T20:27:06.169Z,4.42
2023-02-14T20:29:33.180Z,4.41
2023-02-14T20:32:03.291Z,4.41
2023-02-14T20:34:30.138Z,4.46
2023-02-14T20:36:59.160Z,4.44
2023-02-14T20:39:31.526Z,4.40
2023-02-14T20:42:06.243Z,4.32
2023-02-14T20:44:33.763Z,4.25
2023-02-14T20:47:00.501Z,4.22
2023-02-14T20:49:28.321Z,4.16
2023-02-14T20:51:55.993Z,4.13
2023-02-14T20:54:24.389Z,4.14
2023-02-14T20:56:52.699Z,4.09
2023-02-14T20:59:24.333Z,4.08
2023-02-14T21:01:51.469Z,4.05
2023-02-14T21:04:17.960Z,4.02
2023-02-14T21:06:44.490Z,3.98
2023-02-14T21:09:11.027Z,3.93
2023-02-14T21:11:37.531Z,3.91
2023-02-14T21:14:05.318Z,3.87
2023-02-14T21:16:31.946Z,3.86
2023-02-14T21:19:00.350Z,3.85
2023-02-14T21:21:33.715Z,3.84
2023-02-14T21:24:03.657Z,3.81
2023-02-14T21:26:30.356Z,3.77
2023-02-14T21:28:57.274Z,3.75
2023-02-14T21:31:25.825Z,3.73
2023-02-14T21:33:55.001Z,3.69
2023-02-14T21:36:24.582Z,3.65
2023-02-14T21:38:51.519Z,3.62
2023-02-14T21:41:20.495Z,3.59
2023-02-14T21:43:48.738Z,3.54
2023-02-14T21:46:18.389Z,3.51
2023-02-14T21:49:04.340Z,3.50
2023-02-14T21:51:31.695Z,3.47
2023-02-14T21:54:00.186Z,3.43
2023-02-14T21:56:27.460Z,3.40
2023-02-14T21:58:55.342Z,3.37
2023-02-14T22:01:25.420Z,3.33
2023-02-14T22:03:52.875Z,3.31
2023-02-14T22:06:20.764Z,3.28
2023-02-14T22:08:52.820Z,3.27
2023-02-14T22:11:19.830Z,3.23
2023-02-14T22:13:46.437Z,3.18
2023-02-14T22:16:15.452Z,3.15
2023-02-14T22:18:43.639Z,3.12
2023-02-14T22:21:14.012Z,3.14
2023-02-14T22:23:40.794Z,3.07
2023-02-14T22:26:22.438Z,3.03
2023-02-14T22:28:51.505Z,3.01
2023-02-14T22:31:18.911Z,2.97
2023-02-14T22:33:47.997Z,2.96
2023-02-14T22:36:14.646Z,2.92
2023-02-14T22:38:41.899Z,2.90
2023-02-14T22:41:11.299Z,2.88
2023-02-14T22:43:38.758Z,2.86
2023-02-14T22:46:08.423Z,2.85
2023-02-14T22:48:36.112Z,2.87
2023-02-14T22:51:10.032Z,2.87
2023-02-14T22:53:36.829Z,2.83
2023-02-14T22:56:15.139Z,2.79
2023-02-14T22:58:42.028Z,2.75
2023-02-14T23:01:15.386Z,2.74
2023-02-14T23:03:42.529Z,2.75
2023-02-14T23:06:09.534Z,2.71
2023-02-14T23:08:39.770Z,2.68
2023-02-14T23:11:15.364Z,2.69
2023-02-14T23:14:00.361Z,2.69
2023-02-14T23:16:45.729Z,2.67
2023-02-14T23:19:35.574Z,2.67
2023-02-14T23:22:08.379Z,2.68
2023-02-14T23:24:35.202Z,2.66
2023-02-14T23:27:02.161Z,2.65
2023-02-14T23:29:29.711Z,2.64
2023-02-14T23:31:56.672Z,2.64
2023-02-14T23:34:26.496Z,2.66
2023-02-14T23:36:53.362Z,2.64
2023-02-14T23:39:20.147Z,2.63
2023-02-14T23:41:47.632Z,2.60
2023-02-14T23:44:18.830Z,2.56
2023-02-14T23:46:47.439Z,2.55
2023-02-14T23:49:15.223Z,2.52
2023-02-14T23:51:42.762Z,2.52
2023-02-14T23:54:10.027Z,2.49
2023-02-14T23:56:37.247Z,2.48
2023-02-14T23:59:05.140Z,2.43
